Stations météo

Publicité
Formigueres, France (7737): Température de l'air & dewpoint: 13.04.2019 05:00:00 - 19.04.2019 05:00:00 (CEST)Formigueres, France (7737): Vitesse du vent & gusts: 13.04.2019 05:00:00 - 19.04.2019 05:00:00 (CEST)Formigueres, France (7737): Direction du vent: 13.04.2019 05:00:00 - 19.04.2019 05:00:00 (CEST)Formigueres, France (7737): Quantités de précipitations: 13.04.2019 05:00:00 - 19.04.2019 05:00:00 (CEST)
Date & Time tt [°C] td [°C] ff [km/h] ff [knt] fx [km/h] fx [knt] dd rr [mm]
19.04.2019 05:00:00 - - - - - - - -
19.04.2019 04:00:00 7,2 -3,7 11 6 39 21 S 0,0
19.04.2019 03:00:00 7,2 -3,7 13 7 34 18 WSW 0,0
19.04.2019 02:00:00 7,5 -4,3 13 7 39 21 SW -
19.04.2019 01:00:00 7,4 -4,4 15 8 41 22 SSW 0,0
19.04.2019 00:00:00 6,0 -1,9 9 5 35 19 S 0,0
18.04.2019 23:00:00 7,4 -2,6 16 9 35 19 S 0,0
18.04.2019 22:00:00 7,5 -0,7 11 6 34 18 S 0,0
18.04.2019 21:00:00 7,0 1,7 11 6 28 15 SSE 0,0
18.04.2019 20:00:00 7,6 2,5 18 10 41 22 SE -
18.04.2019 19:00:00 7,4 3,8 31 17 50 27 SE 0,0
18.04.2019 18:00:00 8,9 4,9 22 12 52 28 SE 0,0
18.04.2019 17:00:00 9,2 5,6 24 13 50 27 SE 0,0
18.04.2019 16:00:00 8,9 5,8 31 17 52 28 SE 0,0
18.04.2019 15:00:00 10,0 3,7 28 15 44 24 ESE 0,0
18.04.2019 14:00:00 11,7 3,7 28 15 37 20 ESE -
18.04.2019 13:00:00 16,3 0,4 11 6 46 25 SSW 0,0
18.04.2019 12:00:00 14,4 1,0 18 10 39 21 S 0,0
18.04.2019 11:00:00 11,5 3,5 26 14 37 20 SE 0,0
18.04.2019 10:00:00 12,5 1,2 11 6 35 19 SSW 0,0
18.04.2019 09:00:00 11,0 0,1 11 6 21 11 WSW 0,0
18.04.2019 08:00:00 8,8 -0,5 9 5 22 12 WSW -
18.04.2019 07:00:00 9,1 -1,3 5 3 26 14 SW 0,0
18.04.2019 06:00:00 8,0 -1,8 15 8 22 12 WSW 0,0
18.04.2019 05:00:00 9,8 -1,6 15 8 28 15 SW 0,0
18.04.2019 04:00:00 8,0 -1,8 15 8 28 15 WSW 0,0
18.04.2019 03:00:00 7,0 -1,7 18 10 26 14 WSW 0,0
18.04.2019 02:00:00 7,1 -1,3 15 8 24 13 WSW -
18.04.2019 01:00:00 7,3 -1,7 15 8 26 14 WSW 0,0
18.04.2019 00:00:00 7,0 -0,5 18 10 24 13 WSW 0,0
17.04.2019 23:00:00 8,1 0,3 13 7 22 12 WSW 0,0
17.04.2019 22:00:00 8,5 1,6 11 6 18 10 WSW 0,0
17.04.2019 21:00:00 10,7 3,2 9 5 41 22 SE 0,0
17.04.2019 20:00:00 12,8 1,8 21 11 37 20 SSW -
17.04.2019 19:00:00 14,3 1,5 21 11 41 22 SSW 0,0
17.04.2019 18:00:00 16,2 2,6 26 14 42 23 S 0,0
17.04.2019 17:00:00 15,2 0,6 26 14 44 24 SSW 0,0
17.04.2019 16:00:00 15,1 0,9 26 14 50 27 S 0,0
17.04.2019 15:00:00 15,6 2,0 28 15 52 28 S 0,0
17.04.2019 14:00:00 16,0 4,4 34 18 54 29 SSE -
17.04.2019 13:00:00 14,7 2,6 34 18 55 30 S 0,0
17.04.2019 12:00:00 13,1 2,6 34 18 55 30 S 0,0
17.04.2019 11:00:00 12,1 1,7 26 14 54 29 S 0,0
17.04.2019 10:00:00 10,1 0,9 11 6 35 19 SSW 0,0
17.04.2019 09:00:00 4,4 1,4 8 4 16 9 WSW 0,0
17.04.2019 08:00:00 1,5 -0,3 9 5 21 11 WSW -
17.04.2019 07:00:00 0,9 -1,0 11 6 24 13 WSW 0,0
17.04.2019 06:00:00 0,9 -1,0 13 7 26 14 WSW 0,0
17.04.2019 05:00:00 1,0 -0,6 15 8 22 12 W 0,0
17.04.2019 04:00:00 1,6 0,0 15 8 22 12 WSW 0,0
17.04.2019 03:00:00 1,7 0,2 13 7 21 11 WSW 0,0
17.04.2019 02:00:00 2,0 0,4 13 7 21 11 WSW -
17.04.2019 01:00:00 2,8 1,3 8 4 13 7 WSW 0,0
17.04.2019 00:00:00 2,9 1,6 9 5 15 8 WSW 0,0
16.04.2019 23:00:00 2,8 2,1 5 3 9 5 SSW 0,0
16.04.2019 22:00:00 4,5 3,3 2 1 22 12 SSW 0,0
16.04.2019 21:00:00 5,1 4,4 15 8 22 12 ESE 0,0
16.04.2019 20:00:00 5,4 4,7 13 7 22 12 ESE -
16.04.2019 19:00:00 6,1 4,9 11 6 21 11 ESE 0,0
16.04.2019 18:00:00 6,2 5,0 8 4 22 12 NE 0,0
16.04.2019 17:00:00 6,1 4,7 13 7 22 12 NNE 0,2
16.04.2019 16:00:00 7,1 4,9 13 7 26 14 N 0,2
16.04.2019 15:00:00 7,4 4,7 11 6 21 11 NNE 0,0
16.04.2019 14:00:00 7,4 4,7 9 5 24 13 NNE -
16.04.2019 13:00:00 7,0 4,8 9 5 29 16 NNE 0,0
16.04.2019 12:00:00 4,9 4,2 18 10 29 16 NNE 0,0
16.04.2019 11:00:00 5,2 4,5 15 8 31 17 N 0,0
16.04.2019 10:00:00 4,0 3,3 18 10 29 16 N 0,0
16.04.2019 09:00:00 4,3 3,1 15 8 26 14 N 0,0
16.04.2019 08:00:00 3,8 3,2 13 7 29 16 N -
16.04.2019 07:00:00 3,8 3,4 15 8 28 15 N 0,0
16.04.2019 06:00:00 3,9 3,3 16 9 28 15 N 0,0
16.04.2019 05:00:00 4,4 3,7 16 9 28 15 NNE 0,0
16.04.2019 04:00:00 4,7 3,2 16 9 28 15 N 0,2
16.04.2019 03:00:00 5,2 4,5 8 4 26 14 N 3,0
16.04.2019 02:00:00 5,3 4,3 13 7 24 13 N -
16.04.2019 01:00:00 5,6 3,8 5 3 34 18 SSW 2,0
16.04.2019 00:00:00 6,0 2,1 18 10 44 24 N 0,0
15.04.2019 23:00:00 9,9 4,5 16 9 41 22 S 0,0
15.04.2019 22:00:00 10,2 4,3 16 9 37 20 S 0,0
15.04.2019 21:00:00 11,4 3,9 13 7 37 20 SSW 0,0
15.04.2019 20:00:00 11,4 3,9 22 12 39 21 SSE -
15.04.2019 19:00:00 12,6 3,8 15 8 48 26 S 0,0
15.04.2019 18:00:00 13,9 2,5 28 15 48 26 SSW 0,0
15.04.2019 17:00:00 15,4 3,2 24 13 46 25 SSW 0,0
15.04.2019 16:00:00 16,2 1,1 28 15 44 24 SSW 0,0
15.04.2019 15:00:00 17,8 1,7 18 10 46 25 SSW 0,0
15.04.2019 14:00:00 17,6 2,3 22 12 41 22 S -
15.04.2019 13:00:00 16,4 3,4 18 10 34 18 SSE 0,0
15.04.2019 12:00:00 15,5 2,3 15 8 34 18 S 0,0
15.04.2019 11:00:00 15,0 2,8 13 7 26 14 SSE 0,0
15.04.2019 10:00:00 11,0 5,3 4 2 9 5 NNE 0,0
15.04.2019 09:00:00 7,6 3,3 2 1 13 7 WSW 0,0
15.04.2019 08:00:00 3,4 0,6 5 3 18 10 WSW -
15.04.2019 07:00:00 3,0 0,2 9 5 22 12 WSW 0,0
15.04.2019 06:00:00 3,1 0,7 9 5 16 9 W 0,0
15.04.2019 05:00:00 2,8 1,0 5 3 13 7 W 0,0
15.04.2019 04:00:00 3,0 1,2 2 1 15 8 NE 0,0
15.04.2019 03:00:00 4,7 2,2 5 3 13 7 SW 0,0
15.04.2019 02:00:00 4,5 1,7 4 2 13 7 NE -
15.04.2019 01:00:00 5,8 2,4 4 2 13 7 W 0,0
15.04.2019 00:00:00 5,4 2,0 4 2 21 11 W 0,0
14.04.2019 23:00:00 5,2 1,7 5 3 21 11 SSW 0,0
14.04.2019 22:00:00 5,6 2,1 8 4 44 24 NE 0,0
14.04.2019 21:00:00 7,2 2,5 21 11 46 25 NNE 0,0
14.04.2019 20:00:00 7,7 2,8 16 9 44 24 NNE -
14.04.2019 19:00:00 7,8 2,0 16 9 46 25 N 0,0
14.04.2019 18:00:00 11,0 3,8 18 10 55 30 NNE 0,0
14.04.2019 17:00:00 10,9 3,0 21 11 52 28 N 0,0
14.04.2019 16:00:00 8,7 1,8 11 6 34 18 N 0,0
14.04.2019 15:00:00 8,5 0,0 11 6 39 21 N 0,0
14.04.2019 14:00:00 8,3 -1,8 16 9 50 27 N -
14.04.2019 13:00:00 8,4 -5,1 13 7 41 22 NNW 0,0
14.04.2019 12:00:00 7,8 -6,7 11 6 55 30 WNW 0,0
14.04.2019 11:00:00 8,2 -8,0 16 9 57 31 NW 0,0
14.04.2019 10:00:00 6,7 -9,3 16 9 46 25 N 0,0
14.04.2019 09:00:00 6,6 -8,2 8 4 28 15 N 0,0
14.04.2019 08:00:00 2,7 -7,0 4 2 21 11 SSE -
14.04.2019 07:00:00 0,5 -8,5 4 2 18 10 SSW 0,0
14.04.2019 06:00:00 -1,9 -9,3 4 2 13 7 W 0,0
14.04.2019 05:00:00 -2,7 -9,4 4 2 21 11 SSW 0,0
14.04.2019 04:00:00 -1,7 -10,3 8 4 21 11 W 0,0
14.04.2019 03:00:00 -1,5 -10,8 5 3 16 9 WSW 0,0
14.04.2019 02:00:00 -1,4 -9,8 8 4 18 10 WSW -
14.04.2019 01:00:00 -1,4 -9,8 8 4 15 8 WSW 0,0
14.04.2019 00:00:00 -0,3 -9,7 8 4 18 10 WSW 0,0
13.04.2019 23:00:00 0,0 -8,0 5 3 18 10 WSW 0,0
13.04.2019 22:00:00 1,2 -6,4 11 6 26 14 WSW 0,0
13.04.2019 21:00:00 2,7 -5,5 5 3 15 8 SW 0,0
13.04.2019 20:00:00 6,3 -5,4 8 4 24 13 N -
13.04.2019 19:00:00 9,7 -5,8 8 4 37 20 NE 0,0
13.04.2019 18:00:00 10,1 -13,2 21 11 50 27 W 0,0
13.04.2019 17:00:00 10,6 -13,5 16 9 39 21 W 0,0
13.04.2019 16:00:00 11,1 -12,4 13 7 35 19 NNW 0,0
13.04.2019 15:00:00 10,2 -13,1 18 10 41 22 W 0,0
13.04.2019 14:00:00 9,2 -15,4 13 7 50 27 W -
13.04.2019 13:00:00 9,1 -14,7 13 7 48 26 NNW 0,0
13.04.2019 12:00:00 8,2 -15,5 21 11 46 25 N 0,0
13.04.2019 11:00:00 6,9 -11,3 18 10 44 24 NNE 0,0
13.04.2019 10:00:00 5,7 -11,0 18 10 39 21 N 0,0
13.04.2019 09:00:00 4,9 -13,0 4 2 15 8 SW 0,0
13.04.2019 08:00:00 0,6 -12,1 4 2 15 8 W -
13.04.2019 07:00:00 -1,5 -11,4 4 2 13 7 NNW 0,0
13.04.2019 06:00:00 -3,2 -7,2 2 1 11 6 NE 0,0
13.04.2019 05:00:00 -2,0 -7,5 2 1 18 10 SSE 0,0

tt = Température de l'air
td = dewpoint
ff = Vitesse du vent
fx = gusts
dd = Direction du vent
rr = Quantités de précipitations

stations d'obs. à proximité